createdAt,value
2023-02-22T00:01:42.908Z,19.40
2023-02-22T00:04:11.085Z,19.30
2023-02-22T00:06:37.775Z,19.40
2023-02-22T00:09:04.763Z,19.30
2023-02-22T00:11:31.758Z,19.30
2023-02-22T00:13:58.785Z,19.40
2023-02-22T00:16:26.691Z,19.30
2023-02-22T00:18:54.860Z,19.30
2023-02-22T00:21:22.096Z,19.30
2023-02-22T00:23:49.612Z,19.30
2023-02-22T00:26:20.894Z,19.30
2023-02-22T00:28:53.673Z,19.30
2023-02-22T00:31:21.490Z,19.40
2023-02-22T00:33:49.516Z,19.30
2023-02-22T00:36:17.342Z,19.30
2023-02-22T00:38:44.050Z,19.30
2023-02-22T00:41:12.021Z,19.30
2023-02-22T00:43:38.746Z,19.30
2023-02-22T00:46:05.627Z,19.30
2023-02-22T00:48:32.462Z,19.30
2023-02-22T00:50:59.304Z,19.30
2023-02-22T00:53:26.482Z,19.30
2023-02-22T00:55:54.066Z,19.30
2023-02-22T00:58:21.498Z,19.30
2023-02-22T01:00:48.780Z,19.30
2023-02-22T01:03:18.552Z,19.30
2023-02-22T01:05:46.588Z,19.30
2023-02-22T01:08:15.507Z,19.30
2023-02-22T01:10:42.757Z,19.30
2023-02-22T01:13:12.113Z,19.30
2023-02-22T01:15:42.666Z,19.30
2023-02-22T01:18:10.137Z,19.30
2023-02-22T01:20:37.013Z,19.30
2023-02-22T01:23:06.982Z,19.30
2023-02-22T01:25:34.917Z,19.30
2023-02-22T01:28:02.687Z,19.30
2023-02-22T01:30:35.722Z,19.30
2023-02-22T01:33:04.901Z,19.30
2023-02-22T01:35:34.783Z,19.30
2023-02-22T01:38:01.856Z,19.30
2023-02-22T01:40:34.490Z,19.30
2023-02-22T01:43:06.486Z,19.30
2023-02-22T01:45:33.158Z,19.20
2023-02-22T01:48:17.146Z,19.30
2023-02-22T01:51:16.164Z,19.30
2023-02-22T01:53:54.467Z,19.20
2023-02-22T01:56:23.349Z,19.30
2023-02-22T01:58:55.683Z,19.30
2023-02-22T02:01:24.118Z,19.30
2023-02-22T02:03:51.706Z,19.30
2023-02-22T02:06:20.032Z,19.20
2023-02-22T02:09:02.272Z,19.20
2023-02-22T02:11:29.587Z,19.30
2023-02-22T02:13:59.879Z,19.20
2023-02-22T02:16:39.895Z,19.20
2023-02-22T02:19:18.418Z,19.20
2023-02-22T02:22:10.366Z,19.20
2023-02-22T02:24:39.538Z,19.20
2023-02-22T02:27:09.243Z,19.20
2023-02-22T02:30:13.590Z,19.20
2023-02-22T02:32:55.290Z,19.20
2023-02-22T02:35:39.791Z,19.20
2023-02-22T02:38:44.184Z,19.20
2023-02-22T02:41:21.630Z,19.20
2023-02-22T02:43:57.429Z,19.20
2023-02-22T02:46:56.100Z,19.20
2023-02-22T02:49:46.082Z,19.20
2023-02-22T02:52:14.821Z,19.20
2023-02-22T02:54:42.369Z,19.20
2023-02-22T02:57:09.441Z,19.20
2023-02-22T02:59:37.866Z,19.20
2023-02-22T03:02:26.153Z,19.20
2023-02-22T03:05:09.979Z,19.20
2023-02-22T03:08:15.610Z,19.20
2023-02-22T03:10:54.643Z,19.20
2023-02-22T03:13:42.538Z,19.20
2023-02-22T03:16:32.719Z,19.20
2023-02-22T03:19:11.018Z,19.20
2023-02-22T03:22:08.888Z,19.20
2023-02-22T03:25:02.050Z,19.20
2023-02-22T03:27:43.804Z,19.20
2023-02-22T03:30:37.466Z,19.20
2023-02-22T03:33:10.261Z,19.20
2023-02-22T03:35:49.777Z,19.20
2023-02-22T03:38:20.124Z,19.20
2023-02-22T03:40:52.146Z,19.20
2023-02-22T03:43:25.566Z,19.20
2023-02-22T03:45:56.432Z,19.20
2023-02-22T03:48:46.225Z,19.20
2023-02-22T03:51:17.433Z,19.20
2023-02-22T03:53:48.252Z,19.20
2023-02-22T03:56:23.408Z,19.20
2023-02-22T03:58:51.121Z,19.20
2023-02-22T04:01:19.873Z,19.20
2023-02-22T04:03:46.937Z,19.20
2023-02-22T04:06:15.230Z,19.20
2023-02-22T04:08:43.991Z,19.20
2023-02-22T04:11:11.328Z,19.20
2023-02-22T04:13:39.229Z,19.20
2023-02-22T04:16:06.194Z,19.20
2023-02-22T04:18:32.920Z,19.20
2023-02-22T04:21:00.798Z,19.20
2023-02-22T04:23:41.109Z,19.20
2023-02-22T04:26:08.452Z,19.20
2023-02-22T04:28:35.268Z,19.20
2023-02-22T04:31:09.270Z,19.20
2023-02-22T04:33:36.051Z,19.10
2023-02-22T04:36:02.837Z,19.20
2023-02-22T04:38:33.287Z,19.20
2023-02-22T04:41:00.357Z,19.20
2023-02-22T04:43:27.656Z,19.10
2023-02-22T04:46:02.358Z,19.20
2023-02-22T04:48:29.218Z,19.20
2023-02-22T04:50:56.707Z,19.20
2023-02-22T04:53:24.188Z,19.20
2023-02-22T04:55:52.330Z,19.10
2023-02-22T04:58:19.073Z,19.10
2023-02-22T05:00:45.843Z,19.10
2023-02-22T05:03:12.597Z,19.20
2023-02-22T05:05:39.292Z,19.10
2023-02-22T05:08:06.069Z,19.10
2023-02-22T05:10:32.750Z,19.20
2023-02-22T05:12:59.441Z,19.10
2023-02-22T05:15:26.139Z,19.20
2023-02-22T05:17:53.463Z,19.20
2023-02-22T05:20:30.147Z,19.10
2023-02-22T05:22:58.292Z,19.10
2023-02-22T05:25:25.451Z,19.10
2023-02-22T05:27:54.211Z,19.10
2023-02-22T05:30:27.972Z,19.10
2023-02-22T05:32:54.900Z,19.10
2023-02-22T05:35:23.212Z,19.10
2023-02-22T05:37:53.185Z,19.10
2023-02-22T05:40:21.977Z,19.10
2023-02-22T05:42:50.759Z,19.10
2023-02-22T05:45:20.283Z,19.20
2023-02-22T05:47:47.808Z,19.10
2023-02-22T05:50:15.537Z,19.10
2023-02-22T05:52:42.734Z,19.20
2023-02-22T05:55:10.605Z,19.10
2023-02-22T05:57:37.486Z,19.20
2023-02-22T06:00:06.948Z,19.10
2023-02-22T06:02:39.706Z,19.10
2023-02-22T06:05:06.759Z,19.20
2023-02-22T06:07:33.776Z,19.10
2023-02-22T06:10:00.553Z,19.10
2023-02-22T06:12:27.341Z,19.10
2023-02-22T06:14:54.049Z,19.10
2023-02-22T06:17:20.755Z,19.10
2023-02-22T06:19:47.499Z,19.10
2023-02-22T06:22:19.328Z,19.10
2023-02-22T06:24:46.246Z,19.10
2023-02-22T06:27:13.366Z,19.10
2023-02-22T06:29:44.150Z,19.10
2023-02-22T06:32:11.263Z,19.10
2023-02-22T06:34:37.965Z,19.10
2023-02-22T06:37:04.656Z,19.10
2023-02-22T06:39:31.369Z,19.10
2023-02-22T06:41:59.732Z,19.10
2023-02-22T06:44:26.606Z,19.10
2023-02-22T06:46:53.278Z,19.10
2023-02-22T06:49:20.690Z,19.10
2023-02-22T06:51:48.012Z,19.10
2023-02-22T06:54:15.053Z,19.10
2023-02-22T06:56:41.767Z,19.10
2023-02-22T06:59:08.634Z,19.10
2023-02-22T07:01:35.568Z,19.10
2023-02-22T07:04:02.515Z,19.10
2023-02-22T07:06:29.434Z,19.10
2023-02-22T07:08:56.203Z,19.10
2023-02-22T07:11:22.872Z,19.10
2023-02-22T07:13:49.694Z,19.10
2023-02-22T07:16:16.518Z,19.10
2023-02-22T07:18:43.187Z,19.10
2023-02-22T07:21:10.654Z,19.10
2023-02-22T07:23:37.714Z,19.20
2023-02-22T07:26:05.469Z,19.20
2023-02-22T07:28:32.409Z,19.20
2023-02-22T07:30:59.231Z,19.20
2023-02-22T07:33:26.750Z,19.20
2023-02-22T07:35:53.509Z,19.20
2023-02-22T07:38:21.144Z,19.20
2023-02-22T07:40:48.354Z,19.20
2023-02-22T07:43:26.119Z,19.20
2023-02-22T07:45:55.466Z,19.20
2023-02-22T07:48:25.717Z,19.20
2023-02-22T07:50:52.425Z,19.20
2023-02-22T07:53:26.693Z,19.20
2023-02-22T07:55:55.255Z,19.20
2023-02-22T07:58:24.460Z,19.30
2023-02-22T08:00:51.299Z,19.30
2023-02-22T08:03:19.910Z,19.30
2023-02-22T08:05:49.579Z,19.30
2023-02-22T08:08:18.821Z,19.30
2023-02-22T08:10:47.677Z,19.40
2023-02-22T08:13:14.525Z,19.40
2023-02-22T08:15:43.976Z,19.40
2023-02-22T08:18:13.719Z,19.40
2023-02-22T08:20:42.324Z,19.40
2023-02-22T08:23:11.173Z,19.50
2023-02-22T08:25:37.863Z,19.50
2023-02-22T08:28:07.466Z,19.50
2023-02-22T08:30:35.346Z,19.50
2023-02-22T08:33:02.995Z,19.50
2023-02-22T08:35:32.372Z,19.60
2023-02-22T08:38:01.859Z,19.60
2023-02-22T08:40:31.131Z,19.60
2023-02-22T08:42:58.032Z,19.60
2023-02-22T08:45:25.040Z,19.60
2023-02-22T08:47:52.169Z,19.60
2023-02-22T08:50:24.881Z,19.70
2023-02-22T08:52:53.552Z,19.60
2023-02-22T08:55:24.218Z,19.70
2023-02-22T08:57:50.853Z,19.70
2023-02-22T09:00:24.632Z,19.70
2023-02-22T09:02:52.646Z,19.70
2023-02-22T09:05:19.818Z,19.70
2023-02-22T09:07:46.532Z,19.80
2023-02-22T09:10:18.093Z,19.80
2023-02-22T09:12:44.801Z,19.80
2023-02-22T09:15:12.394Z,19.80
2023-02-22T09:17:39.145Z,19.80
2023-02-22T09:20:07.680Z,19.80
2023-02-22T09:22:34.613Z,19.80
2023-02-22T09:25:11.339Z,19.80
2023-02-22T09:27:43.973Z,19.80
2023-02-22T09:30:32.977Z,19.80
2023-02-22T09:33:07.100Z,19.80
2023-02-22T09:35:36.261Z,19.80
2023-02-22T09:38:06.317Z,19.80
2023-02-22T09:40:40.834Z,19.90
2023-02-22T09:43:41.564Z,19.80
2023-02-22T09:46:34.669Z,19.90
2023-02-22T09:49:09.514Z,19.90
2023-02-22T09:51:49.361Z,19.90
2023-02-22T09:54:18.789Z,19.90
2023-02-22T09:56:48.544Z,19.90
2023-02-22T09:59:22.429Z,19.90
2023-02-22T10:01:53.840Z,19.90
2023-02-22T10:04:25.983Z,19.90
2023-02-22T10:07:05.894Z,19.90
2023-02-22T10:09:37.617Z,19.90
2023-02-22T10:12:30.017Z,19.90
2023-02-22T10:15:08.685Z,19.90
2023-02-22T10:17:47.552Z,19.90
2023-02-22T10:20:38.909Z,19.90
2023-02-22T10:23:12.204Z,19.90
2023-02-22T10:25:40.443Z,19.90
2023-02-22T10:28:24.492Z,19.90
2023-02-22T10:30:59.044Z,20.00
2023-02-22T10:33:35.078Z,20.00
2023-02-22T10:36:03.115Z,20.00
2023-02-22T10:38:32.973Z,19.90
2023-02-22T10:41:09.348Z,19.90
2023-02-22T10:43:40.936Z,20.00
2023-02-22T10:46:13.126Z,20.00
2023-02-22T10:48:42.686Z,19.90
2023-02-22T10:51:10.155Z,20.00
2023-02-22T10:53:41.114Z,19.90
2023-02-22T10:56:21.329Z,20.00
2023-02-22T10:59:00.523Z,20.00
2023-02-22T11:01:32.975Z,20.00
2023-02-22T11:04:24.090Z,20.00
2023-02-22T11:07:05.724Z,20.00
2023-02-22T11:09:47.395Z,20.00
2023-02-22T11:12:30.106Z,20.00
2023-02-22T11:14:57.074Z,19.90
2023-02-22T11:17:33.708Z,19.90
2023-02-22T11:20:00.604Z,20.00
2023-02-22T11:22:36.460Z,19.90
2023-02-22T11:25:07.347Z,19.90
2023-02-22T11:27:46.855Z,20.00
2023-02-22T11:30:25.397Z,19.90
2023-02-22T11:33:02.976Z,20.00
2023-02-22T11:35:29.569Z,20.00
2023-02-22T11:38:29.633Z,19.90
2023-02-22T11:41:24.260Z,19.90
2023-02-22T11:43:51.920Z,19.90
2023-02-22T11:46:26.076Z,19.90
2023-02-22T11:48:55.594Z,19.90
2023-02-22T11:51:46.897Z,19.90
2023-02-22T11:54:28.722Z,19.80
2023-02-22T11:57:21.950Z,19.90
2023-02-22T12:00:16.130Z,19.90
2023-02-22T12:02:57.294Z,19.90
2023-02-22T12:05:40.509Z,19.90
2023-02-22T12:08:43.589Z,19.90
2023-02-22T12:11:28.785Z,19.90
2023-02-22T12:14:07.779Z,19.90
2023-02-22T12:16:56.801Z,19.80
2023-02-22T12:19:47.419Z,19.90
2023-02-22T12:22:22.805Z,19.90
2023-02-22T12:25:09.137Z,19.80
2023-02-22T12:27:55.473Z,19.90
2023-02-22T12:30:33.925Z,19.80
2023-02-22T12:33:06.384Z,19.80
2023-02-22T12:35:37.239Z,19.90
2023-02-22T12:38:22.875Z,19.90
2023-02-22T12:41:04.015Z,19.80
2023-02-22T12:43:34.167Z,19.90
2023-02-22T12:46:07.346Z,19.90
2023-02-22T12:48:48.228Z,19.80
2023-02-22T12:51:14.921Z,19.90
2023-02-22T12:53:52.547Z,19.80
2023-02-22T12:56:34.158Z,19.80
2023-02-22T12:59:08.939Z,19.80
2023-02-22T13:01:43.217Z,19.80
2023-02-22T13:04:20.541Z,19.80
2023-02-22T13:06:57.007Z,19.80
2023-02-22T13:09:42.439Z,19.80
2023-02-22T13:12:19.093Z,19.80
2023-02-22T13:15:12.719Z,19.80
2023-02-22T13:18:03.869Z,19.80
2023-02-22T13:20:37.915Z,19.80
2023-02-22T13:23:28.000Z,19.80
2023-02-22T13:26:01.262Z,19.80
2023-02-22T13:28:39.648Z,19.80
2023-02-22T13:31:36.126Z,19.80
2023-02-22T13:34:16.417Z,19.80
2023-02-22T13:37:06.960Z,19.70
2023-02-22T13:39:48.204Z,19.80
2023-02-22T13:42:31.633Z,19.80
2023-02-22T13:45:19.288Z,19.80
2023-02-22T13:47:54.762Z,19.80
2023-02-22T13:50:33.503Z,19.80
2023-02-22T13:53:05.355Z,19.80
2023-02-22T13:55:35.229Z,19.80
2023-02-22T13:58:03.385Z,19.80
2023-02-22T14:00:57.745Z,19.70
2023-02-22T14:03:36.576Z,19.80
2023-02-22T14:06:05.675Z,19.70
2023-02-22T14:08:33.652Z,19.70
2023-02-22T14:11:02.282Z,19.70
2023-02-22T14:13:31.040Z,19.70
2023-02-22T14:16:00.633Z,19.70
2023-02-22T14:18:43.795Z,19.70
2023-02-22T14:21:22.033Z,19.70
2023-02-22T14:23:53.076Z,19.70
2023-02-22T14:26:20.048Z,19.80
2023-02-22T14:28:56.104Z,19.80
2023-02-22T14:31:35.905Z,19.70
2023-02-22T14:34:21.515Z,19.80
2023-02-22T14:37:05.147Z,19.70
2023-02-22T14:39:38.253Z,19.70
2023-02-22T14:42:14.022Z,19.70
2023-02-22T14:44:51.037Z,19.70
2023-02-22T14:47:40.970Z,19.70
2023-02-22T14:50:17.740Z,19.70
2023-02-22T14:52:48.753Z,19.70
2023-02-22T14:55:24.273Z,19.70
2023-02-22T14:58:02.144Z,19.70
2023-02-22T15:00:37.775Z,19.70
2023-02-22T15:03:04.923Z,19.60
2023-02-22T15:05:38.374Z,19.70
2023-02-22T15:08:08.144Z,19.60
2023-02-22T15:10:45.954Z,19.70
2023-02-22T15:13:18.627Z,19.60
2023-02-22T15:15:54.345Z,19.60
2023-02-22T15:18:46.238Z,19.60
2023-02-22T15:21:20.691Z,19.60
2023-02-22T15:23:56.114Z,19.60
2023-02-22T15:26:49.043Z,19.60
2023-02-22T15:29:25.491Z,19.60
2023-02-22T15:31:56.307Z,19.60
2023-02-22T15:34:33.578Z,19.60
2023-02-22T15:37:24.917Z,19.60
2023-02-22T15:39:59.144Z,19.60
2023-02-22T15:42:29.402Z,19.60
2023-02-22T15:44:56.722Z,19.60
2023-02-22T15:47:27.294Z,19.60
2023-02-22T15:50:21.126Z,19.60
2023-02-22T15:53:04.456Z,19.70
2023-02-22T15:55:40.164Z,19.60
2023-02-22T15:58:20.981Z,19.60
2023-02-22T16:00:59.397Z,19.60
2023-02-22T16:03:28.661Z,19.60
2023-02-22T16:05:56.749Z,19.60
2023-02-22T16:08:45.788Z,19.60
2023-02-22T16:11:38.390Z,19.60
2023-02-22T16:14:22.878Z,19.60
2023-02-22T16:16:49.780Z,19.60
2023-02-22T16:19:32.862Z,19.60
2023-02-22T16:22:02.879Z,19.60
2023-02-22T16:24:32.888Z,19.60
2023-02-22T16:27:15.696Z,19.60
2023-02-22T16:29:42.918Z,19.60
2023-02-22T16:32:10.011Z,19.60
2023-02-22T16:34:37.055Z,19.60
2023-02-22T16:37:03.934Z,19.60
2023-02-22T16:39:34.691Z,19.60
2023-02-22T16:42:03.785Z,19.60
2023-02-22T16:44:30.652Z,19.60
2023-02-22T16:46:59.676Z,19.60
2023-02-22T16:49:26.485Z,19.60
2023-02-22T16:51:55.983Z,19.60
2023-02-22T16:54:34.186Z,19.60
2023-02-22T16:57:03.924Z,19.60
2023-02-22T16:59:36.300Z,19.60
2023-02-22T17:02:07.435Z,19.60
2023-02-22T17:04:34.427Z,19.60
2023-02-22T17:07:05.012Z,19.50
2023-02-22T17:09:32.798Z,19.60
2023-02-22T17:11:59.827Z,19.50
2023-02-22T17:14:32.947Z,19.50
2023-02-22T17:17:00.197Z,19.60
2023-02-22T17:19:27.406Z,19.50
2023-02-22T17:21:54.312Z,19.50
2023-02-22T17:24:23.574Z,19.50
2023-02-22T17:26:52.984Z,19.50
2023-02-22T17:29:20.696Z,19.60
2023-02-22T17:31:48.856Z,19.60
2023-02-22T17:34:16.107Z,19.50
2023-02-22T17:36:43.546Z,19.50
2023-02-22T17:39:10.643Z,19.50
2023-02-22T17:41:40.342Z,19.50
2023-02-22T17:44:07.871Z,19.60
2023-02-22T17:46:36.754Z,19.50
2023-02-22T17:49:03.567Z,19.60
2023-02-22T17:51:30.353Z,19.50
2023-02-22T17:53:57.274Z,19.60
2023-02-22T17:56:24.315Z,19.50
2023-02-22T17:58:54.541Z,19.50
2023-02-22T18:01:27.755Z,19.50
2023-02-22T18:03:56.246Z,19.60
2023-02-22T18:06:27.015Z,19.50
2023-02-22T18:08:56.595Z,19.50
2023-02-22T18:11:28.445Z,19.50
2023-02-22T18:13:57.424Z,19.50
2023-02-22T18:16:25.846Z,19.60
2023-02-22T18:18:53.804Z,19.50
2023-02-22T18:21:21.251Z,19.50
2023-02-22T18:23:47.949Z,19.50
2023-02-22T18:26:17.537Z,19.50
2023-02-22T18:28:44.660Z,19.50
2023-02-22T18:31:15.030Z,19.50
2023-02-22T18:33:46.591Z,19.50
2023-02-22T18:36:14.352Z,19.50
2023-02-22T18:38:43.097Z,19.50
2023-02-22T18:41:12.741Z,19.50
2023-02-22T18:43:40.436Z,19.50
2023-02-22T18:46:09.977Z,19.50
2023-02-22T18:48:37.771Z,19.50
2023-02-22T18:51:10.785Z,19.50
2023-02-22T18:53:40.082Z,19.50
2023-02-22T18:56:12.363Z,19.50
2023-02-22T18:58:39.257Z,19.50
2023-02-22T19:01:07.494Z,19.50
2023-02-22T19:03:38.133Z,19.50
2023-02-22T19:06:10.232Z,19.50
2023-02-22T19:08:39.502Z,19.50
2023-02-22T19:11:09.609Z,19.50
2023-02-22T19:13:37.178Z,19.50
2023-02-22T19:16:05.755Z,19.50
2023-02-22T19:18:32.505Z,19.50
2023-02-22T19:21:01.157Z,19.50
2023-02-22T19:23:28.392Z,19.50
2023-02-22T19:25:55.082Z,19.50
2023-02-22T19:28:27.978Z,19.50
2023-02-22T19:30:54.761Z,19.50
2023-02-22T19:33:25.931Z,19.50
2023-02-22T19:35:52.664Z,19.50
2023-02-22T19:38:20.292Z,19.50
2023-02-22T19:40:48.332Z,19.50
2023-02-22T19:43:15.017Z,19.50
2023-02-22T19:45:41.723Z,19.50
2023-02-22T19:48:08.427Z,19.50
2023-02-22T19:50:35.159Z,19.50
2023-02-22T19:53:01.906Z,19.50
2023-02-22T19:55:32.169Z,19.50
2023-02-22T19:57:59.094Z,19.50
2023-02-22T20:00:27.034Z,19.50
2023-02-22T20:03:05.523Z,19.50
2023-02-22T20:05:41.894Z,19.50
2023-02-22T20:08:08.872Z,19.50
2023-02-22T20:10:35.584Z,19.50
2023-02-22T20:13:02.569Z,19.50
2023-02-22T20:15:30.000Z,19.50
2023-02-22T20:17:57.831Z,19.50
2023-02-22T20:20:25.684Z,19.50
2023-02-22T20:22:52.958Z,19.50
2023-02-22T20:25:19.992Z,19.50
2023-02-22T20:27:46.648Z,19.50
2023-02-22T20:30:14.525Z,19.50
2023-02-22T20:32:42.578Z,19.50
2023-02-22T20:35:09.499Z,19.50
2023-02-22T20:37:38.818Z,19.50
2023-02-22T20:40:06.532Z,19.50
2023-02-22T20:42:33.197Z,19.50
2023-02-22T20:45:04.507Z,19.50
2023-02-22T20:47:31.304Z,19.50
2023-02-22T20:49:58.068Z,19.50
2023-02-22T20:52:24.917Z,19.50
2023-02-22T20:54:51.596Z,19.50
2023-02-22T20:57:18.303Z,19.50
2023-02-22T20:59:46.200Z,19.50
2023-02-22T21:02:12.844Z,19.50
2023-02-22T21:04:39.989Z,19.50
2023-02-22T21:07:06.766Z,19.50
2023-02-22T21:09:33.936Z,19.50
2023-02-22T21:12:00.778Z,19.50
2023-02-22T21:14:28.288Z,19.50
2023-02-22T21:16:55.082Z,19.50
2023-02-22T21:19:28.069Z,19.50
2023-02-22T21:21:57.820Z,19.50
2023-02-22T21:24:26.861Z,19.50
2023-02-22T21:26:54.131Z,19.50
2023-02-22T21:29:20.894Z,19.50
2023-02-22T21:31:47.898Z,19.50
2023-02-22T21:34:17.457Z,19.50
2023-02-22T21:36:45.629Z,19.50
2023-02-22T21:39:18.402Z,19.50
2023-02-22T21:41:51.014Z,19.50
2023-02-22T21:44:18.443Z,19.50
2023-02-22T21:46:48.653Z,19.50
2023-02-22T21:49:15.698Z,19.50
2023-02-22T21:51:42.430Z,19.50
2023-02-22T21:54:11.859Z,19.50
2023-02-22T21:56:41.470Z,19.50
2023-02-22T21:59:12.387Z,19.50
2023-02-22T22:01:49.600Z,19.40
2023-02-22T22:04:19.570Z,19.50
2023-02-22T22:06:49.490Z,19.50
2023-02-22T22:09:19.028Z,19.50
2023-02-22T22:11:50.987Z,19.40
2023-02-22T22:14:19.393Z,19.50
2023-02-22T22:16:47.815Z,19.40
2023-02-22T22:19:14.535Z,19.40
2023-02-22T22:21:41.583Z,19.50
2023-02-22T22:24:10.258Z,19.50
2023-02-22T22:26:38.016Z,19.50
2023-02-22T22:29:05.096Z,19.50
2023-02-22T22:31:32.404Z,19.50
2023-02-22T22:33:59.221Z,19.50
2023-02-22T22:36:27.346Z,19.50
2023-02-22T22:38:57.294Z,19.50
2023-02-22T22:41:24.847Z,19.50
2023-02-22T22:43:53.988Z,19.50
2023-02-22T22:46:21.587Z,19.40
2023-02-22T22:48:48.366Z,19.40
2023-02-22T22:51:20.929Z,19.40
2023-02-22T22:53:49.652Z,19.40
2023-02-22T22:56:26.211Z,19.50
2023-02-22T22:58:58.299Z,19.40
2023-02-22T23:01:27.796Z,19.50
2023-02-22T23:03:58.253Z,19.40
2023-02-22T23:06:33.359Z,19.40
2023-02-22T23:09:11.076Z,19.50
2023-02-22T23:12:08.916Z,19.40
2023-02-22T23:14:38.634Z,19.50
2023-02-22T23:17:15.005Z,19.50
2023-02-22T23:19:47.060Z,19.40
2023-02-22T23:22:14.393Z,19.40
2023-02-22T23:24:41.405Z,19.40
2023-02-22T23:27:10.680Z,19.40
2023-02-22T23:29:39.414Z,19.50
2023-02-22T23:32:07.152Z,19.50
2023-02-22T23:34:35.827Z,19.40
2023-02-22T23:37:03.044Z,19.50
2023-02-22T23:39:29.936Z,19.50
2023-02-22T23:42:00.769Z,19.50
2023-02-22T23:44:28.138Z,19.50
2023-02-22T23:46:55.074Z,19.50
2023-02-22T23:49:23.639Z,19.50
2023-02-22T23:51:50.393Z,19.50
2023-02-22T23:54:19.407Z,19.40
2023-02-22T23:56:58.439Z,19.40
2023-02-22T23:59:26.825Z,19.40
